Time;durP1;ratioP1;P1;durP2;ratioP2;P2;SDS_P1;SDS_P2;PMS_P1;PMS_P2;Temp;Humidity;BMP_temperature;BMP_pressure;BME280_temperature;BME280_humidity;BME280_pressure;Samples;Min_cycle;Max_cycle;Signal;HPM_P1;HPM_P2
2022/12/26 00:00:14;;;;;;;7.97;2.17;;;11.60;1.00;;;;;;5072085;28;20472;-52
2022/12/26 00:02:40;;;;;;;6.40;2.08;;;11.70;1.00;;;;;;5071004;28;20376;-52
2022/12/26 00:05:06;;;;;;;6.15;1.88;;;11.70;1.00;;;;;;5071762;28;20938;-51
2022/12/26 00:07:32;;;;;;;6.37;1.80;;;11.80;1.00;;;;;;5071363;28;20384;-57
2022/12/26 00:09:58;;;;;;;6.43;2.10;;;11.50;1.00;;;;;;5071550;28;20437;-51
2022/12/26 00:12:23;;;;;;;6.70;1.93;;;11.80;1.00;;;;;;5071793;28;20487;-52
2022/12/26 00:14:49;;;;;;;7.78;2.40;;;11.80;1.00;;;;;;5071160;28;20403;-52
2022/12/26 00:17:14;;;;;;;6.00;1.70;;;11.90;1.00;;;;;;5064627;28;20483;-53
2022/12/26 00:19:40;;;;;;;7.57;2.03;;;11.90;1.00;;;;;;5072035;28;20398;-56
2022/12/26 00:22:06;;;;;;;6.15;1.80;;;11.80;1.00;;;;;;5071350;28;20861;-51
2022/12/26 00:24:31;;;;;;;7.90;2.30;;;11.70;1.00;;;;;;5071189;28;20395;-58
2022/12/26 00:26:57;;;;;;;7.18;2.10;;;11.90;1.00;;;;;;5071004;28;20517;-53
2022/12/26 00:29:22;;;;;;;5.97;1.85;;;12.00;1.00;;;;;;5071370;28;20749;-54
2022/12/26 00:31:48;;;;;;;6.83;2.20;;;12.00;1.00;;;;;;5070787;28;20471;-52
2022/12/26 00:34:14;;;;;;;6.60;1.80;;;12.00;1.00;;;;;;5071069;28;20768;-51
2022/12/26 00:36:40;;;;;;;7.13;1.90;;;12.20;1.00;;;;;;5070535;28;20423;-51
2022/12/26 00:39:05;;;;;;;7.60;1.90;;;12.20;1.00;;;;;;5070726;28;20412;-52
2022/12/26 00:41:31;;;;;;;7.07;1.93;;;12.20;1.00;;;;;;5067849;28;20392;-58
2022/12/26 00:43:57;;;;;;;6.40;2.17;;;12.20;1.00;;;;;;5070463;28;20389;-52
2022/12/26 00:46:23;;;;;;;6.82;1.70;;;12.00;1.00;;;;;;5070985;28;20395;-51
2022/12/26 00:48:49;;;;;;;9.68;2.50;;;12.00;1.00;;;;;;5070300;28;20445;-51
2022/12/26 00:51:15;;;;;;;7.30;2.60;;;12.10;1.00;;;;;;5068315;28;20396;-52
2022/12/26 00:53:41;;;;;;;6.75;1.98;;;12.00;1.00;;;;;;5069725;28;20388;-51
2022/12/26 00:56:07;;;;;;;5.83;1.90;;;11.90;1.00;;;;;;5070749;28;20773;-51
2022/12/26 00:58:32;;;;;;;7.45;2.20;;;12.00;1.00;;;;;;5070379;28;21376;-57
2022/12/26 01:01:17;;;;;;;6.87;2.40;;;11.90;1.00;;;;;;5070010;28;20384;-52
2022/12/26 01:03:44;;;;;;;5.53;1.85;;;11.90;1.00;;;;;;5068704;28;20420;-51
2022/12/26 01:06:10;;;;;;;7.57;2.30;;;11.90;1.00;;;;;;5070803;28;20408;-51
2022/12/26 01:08:36;;;;;;;8.70;2.60;;;11.90;1.00;;;;;;5049387;28;20394;-52
2022/12/26 01:11:06;;;;;;;6.75;2.50;;;11.80;1.00;;;;;;5070895;28;20459;-52
2022/12/26 01:13:32;;;;;;;6.80;2.15;;;11.80;1.00;;;;;;5065765;28;20400;-58
2022/12/26 01:15:59;;;;;;;6.72;2.30;;;11.90;1.00;;;;;;5065008;28;20891;-51
2022/12/26 01:18:24;;;;;;;8.00;2.50;;;11.60;1.00;;;;;;5070529;28;20380;-53
2022/12/26 01:20:50;;;;;;;7.93;2.40;;;11.40;1.00;;;;;;5069959;28;20528;-51
2022/12/26 01:23:16;;;;;;;9.57;2.47;;;11.30;99.90;;;;;;5070673;28;20474;-52
2022/12/26 01:25:42;;;;;;;6.53;2.10;;;11.10;99.90;;;;;;5069284;28;20417;-51
2022/12/26 01:28:08;;;;;;;7.13;2.20;;;11.10;99.90;;;;;;5070158;28;20385;-52
2022/12/26 01:30:33;;;;;;;6.47;1.90;;;11.20;99.90;;;;;;5058788;28;20407;-58
2022/12/26 01:32:59;;;;;;;6.73;2.30;;;11.20;99.90;;;;;;5069972;28;20725;-52
2022/12/26 01:35:24;;;;;;;7.60;2.10;;;11.20;99.90;;;;;;5069980;28;20412;-54
2022/12/26 01:37:50;;;;;;;7.13;1.90;;;11.20;99.90;;;;;;5069663;28;21230;-52
2022/12/26 01:40:16;;;;;;;7.32;2.20;;;11.20;25.90;;;;;;5069744;28;20384;-54
2022/12/26 01:42:41;;;;;;;6.70;1.90;;;11.20;1.00;;;;;;5069396;28;20387;-52
2022/12/26 01:45:27;;;;;;;6.00;2.05;;;11.20;1.00;;;;;;5069841;28;20876;-53
2022/12/26 01:47:58;;;;;;;7.18;2.67;;;11.10;1.00;;;;;;5068184;28;20371;-53
2022/12/26 01:50:31;;;;;;;7.65;1.73;;;11.00;25.10;;;;;;5069754;28;20388;-52
2022/12/26 01:53:01;;;;;;;6.63;2.22;;;11.00;90.40;;;;;;5069609;28;20403;-52
2022/12/26 01:55:29;;;;;;;9.35;2.30;;;11.10;44.30;;;;;;5055099;28;20422;-54
2022/12/26 01:58:01;;;;;;;7.10;2.17;;;11.10;51.70;;;;;;5068900;28;20383;-54
2022/12/26 02:00:27;;;;;;;6.47;2.10;;;11.10;99.90;;;;;;5069172;28;20384;-54
2022/12/26 02:05:38;;;;;;;6.45;2.10;;;11.00;99.90;;;;;;5068690;28;20482;-52
2022/12/26 02:08:18;;;;;;;6.60;2.00;;;11.00;99.90;;;;;;5070044;28;20449;-52
2022/12/26 02:11:05;;;;;;;9.13;2.30;;;11.00;99.90;;;;;;5067301;28;20507;-54
2022/12/26 02:13:35;;;;;;;6.40;2.10;;;11.00;99.90;;;;;;5068555;28;20474;-55
2022/12/26 02:16:02;;;;;;;7.22;1.88;;;11.10;99.90;;;;;;5067216;28;20407;-51
2022/12/26 02:18:28;;;;;;;5.57;1.83;;;11.20;90.70;;;;;;5069672;28;20838;-52
2022/12/26 02:21:15;;;;;;;6.30;2.10;;;11.20;58.00;;;;;;5068777;28;20533;-52
2022/12/26 02:24:15;;;;;;;6.30;2.20;;;11.20;87.20;;;;;;5065681;28;20392;-52
2022/12/26 02:27:01;;;;;;;6.30;1.77;;;11.10;99.90;;;;;;5065869;28;20384;-54
2022/12/26 02:29:32;;;;;;;7.32;1.98;;;11.20;99.90;;;;;;5068210;28;20430;-53
2022/12/26 02:32:08;;;;;;;6.70;2.30;;;10.90;99.90;;;;;;5069133;28;20376;-54
2022/12/26 02:35:08;;;;;;;6.30;2.07;;;10.90;99.90;;;;;;5068820;28;20510;-58
2022/12/26 02:37:54;;;;;;;6.40;2.00;;;10.90;99.90;;;;;;5069090;28;20449;-58
2022/12/26 02:40:41;;;;;;;6.47;1.90;;;11.00;99.90;;;;;;5018400;28;20403;-52
2022/12/26 02:43:25;;;;;;;7.30;2.30;;;10.90;99.90;;;;;;5067998;28;20519;-52
2022/12/26 02:49:02;;;;;;;6.15;2.30;;;11.10;1.00;;;;;;5065115;28;20435;-52
2022/12/26 03:15:13;;;;;;;7.15;2.30;;;11.30;99.90;;;;;;5070999;28;20443;-52
2022/12/26 03:17:57;;;;;;;6.50;2.08;;;11.30;99.90;;;;;;5067862;28;20406;-52
2022/12/26 03:20:25;;;;;;;5.95;1.85;;;11.40;72.30;;;;;;5068144;28;20376;-52
2022/12/26 03:22:55;;;;;;;6.53;1.90;;;11.40;50.40;;;;;;5071826;28;20392;-52
2022/12/26 03:28:27;;;;;;;6.30;2.10;;;11.40;40.20;;;;;;5071679;28;20754;-52
2022/12/26 03:30:55;;;;;;;6.70;2.30;;;11.40;26.60;;;;;;5053852;28;20400;-53
2022/12/26 03:36:06;;;;;;;8.00;2.40;;;11.30;47.80;;;;;;5070825;28;20591;-52
2022/12/26 03:39:17;;;;;;;6.22;1.90;;;11.30;45.90;;;;;;5072207;28;20379;-52
2022/12/26 04:20:21;;;;;;;6.53;2.00;;;12.00;1.00;;;;;;5070113;28;20423;-52
2022/12/26 04:45:49;;;;;;;5.70;1.88;;;12.00;1.00;;;;;;5069715;28;20395;-52
2022/12/26 04:50:58;;;;;;;5.93;1.70;;;12.10;1.00;;;;;;5070420;28;20744;-52
2022/12/26 04:53:24;;;;;;;6.93;1.70;;;12.20;1.00;;;;;;5071163;28;20380;-52
2022/12/26 04:55:49;;;;;;;7.60;2.10;;;12.20;1.00;;;;;;5069998;28;20491;-53
2022/12/26 04:58:16;;;;;;;6.80;1.80;;;12.20;1.00;;;;;;5071129;28;20388;-52
2022/12/26 05:00:42;;;;;;;5.32;1.60;;;12.20;1.00;;;;;;5069774;28;20396;-52
2022/12/26 05:11:30;;;;;;;5.97;1.80;;;12.00;1.00;;;;;;5069430;28;20387;-52
2022/12/26 05:13:57;;;;;;;5.45;1.75;;;12.10;1.00;;;;;;5069429;28;20416;-52
2022/12/26 05:30:23;;;;;;;7.10;1.90;;;12.00;1.00;;;;;;5066317;28;20476;-52
2022/12/26 05:35:34;;;;;;;5.47;1.67;;;12.10;1.00;;;;;;5068458;28;20545;-52
2022/12/26 05:38:00;;;;;;;6.28;1.90;;;12.00;1.00;;;;;;5066500;28;20693;-52
2022/12/26 05:40:26;;;;;;;6.18;1.88;;;12.10;1.00;;;;;;5069906;28;20396;-53
2022/12/26 05:42:51;;;;;;;5.70;1.90;;;12.20;1.00;;;;;;5069384;28;20383;-52
2022/12/26 05:45:17;;;;;;;8.10;2.38;;;12.20;1.00;;;;;;5069621;28;20392;-52
2022/12/26 05:47:43;;;;;;;5.47;1.67;;;12.30;1.00;;;;;;5069210;28;20388;-53
2022/12/26 05:50:09;;;;;;;7.05;1.75;;;12.20;1.00;;;;;;5069456;28;20426;-53
2022/12/26 05:52:34;;;;;;;7.50;2.30;;;12.30;1.00;;;;;;5069756;28;21255;-52
2022/12/26 05:55:00;;;;;;;5.75;1.88;;;12.30;1.00;;;;;;5068768;28;20396;-53
2022/12/26 05:57:25;;;;;;;6.53;1.80;;;12.30;1.00;;;;;;5069755;28;20384;-53
2022/12/26 05:59:52;;;;;;;6.63;1.80;;;12.30;1.00;;;;;;5069025;28;20437;-53
2022/12/26 06:02:17;;;;;;;6.18;2.03;;;12.30;1.00;;;;;;5069318;28;20383;-53
2022/12/26 06:04:43;;;;;;;7.25;2.17;;;12.40;1.00;;;;;;5068711;28;20488;-53
2022/12/26 06:07:08;;;;;;;5.77;1.70;;;12.40;1.00;;;;;;5069043;28;20396;-53
2022/12/26 06:09:34;;;;;;;7.70;1.85;;;12.30;1.00;;;;;;5069519;28;20407;-52
2022/12/26 06:12:00;;;;;;;6.67;2.00;;;12.20;1.00;;;;;;5068734;28;20444;-52
2022/12/26 06:14:25;;;;;;;6.17;1.80;;;12.20;1.00;;;;;;5069912;28;20376;-52
2022/12/26 06:16:51;;;;;;;7.38;1.92;;;12.20;1.00;;;;;;5068759;28;20888;-52
2022/12/26 06:19:16;;;;;;;6.40;2.00;;;12.20;1.00;;;;;;5069728;28;20437;-52
2022/12/26 06:21:42;;;;;;;6.90;2.20;;;13.60;1.00;;;;;;5069057;28;20395;-53
2022/12/26 06:24:07;;;;;;;6.90;2.13;;;12.10;1.00;;;;;;5069752;28;20376;-52
2022/12/26 06:26:33;;;;;;;6.70;2.10;;;12.20;1.00;;;;;;5069450;28;20388;-52
2022/12/26 06:28:59;;;;;;;5.70;1.70;;;12.30;1.00;;;;;;5068936;28;20391;-52
2022/12/26 06:31:29;;;;;;;6.70;2.00;;;12.30;1.00;;;;;;5069499;28;20524;-52
2022/12/26 06:34:00;;;;;;;6.10;1.90;;;12.40;1.00;;;;;;5068761;28;20458;-52
2022/12/26 06:36:27;;;;;;;9.25;2.00;;;12.40;1.00;;;;;;5069324;28;20423;-52
2022/12/26 06:38:53;;;;;;;7.45;2.00;;;12.30;1.00;;;;;;5067598;28;20387;-52
2022/12/26 06:41:21;;;;;;;5.90;1.90;;;12.40;1.00;;;;;;5069375;28;20828;-53
2022/12/26 06:43:47;;;;;;;6.15;1.80;;;12.40;1.00;;;;;;5068659;28;20725;-53
2022/12/26 06:46:15;;;;;;;6.00;1.73;;;12.30;1.00;;;;;;5069395;28;20396;-52
2022/12/26 06:48:41;;;;;;;6.55;2.00;;;12.30;1.00;;;;;;5068534;28;20486;-53
2022/12/26 06:51:34;;;;;;;7.37;2.10;;;12.40;1.00;;;;;;5069371;28;20865;-53
2022/12/26 06:54:05;;;;;;;5.93;1.90;;;12.40;1.00;;;;;;5065041;28;20740;-53
2022/12/26 06:56:32;;;;;;;6.30;2.10;;;12.40;1.00;;;;;;5069211;28;20407;-53
2022/12/26 06:59:01;;;;;;;7.30;2.05;;;12.40;1.00;;;;;;5068865;28;20387;-52
2022/12/26 07:01:28;;;;;;;6.75;1.80;;;12.30;1.00;;;;;;5069375;28;20431;-53
2022/12/26 07:03:54;;;;;;;6.30;2.00;;;12.40;1.00;;;;;;5065363;28;20495;-53
2022/12/26 07:06:25;;;;;;;6.75;2.33;;;12.40;1.00;;;;;;5064640;28;20553;-53
2022/12/26 07:08:57;;;;;;;7.13;2.20;;;12.40;1.00;;;;;;5068451;28;20399;-53
2022/12/26 07:11:26;;;;;;;7.10;2.10;;;12.40;1.00;;;;;;5069181;28;20400;-53
2022/12/26 07:13:53;;;;;;;7.10;2.50;;;12.40;1.00;;;;;;5068223;28;20741;-53
2022/12/26 07:16:18;;;;;;;7.32;2.92;;;12.40;1.00;;;;;;5069028;28;20415;-53
2022/12/26 07:18:44;;;;;;;5.88;1.80;;;12.40;1.00;;;;;;5068282;28;20714;-52
2022/12/26 07:21:12;;;;;;;6.30;2.10;;;12.40;1.00;;;;;;5068618;28;20419;-53
2022/12/26 07:23:38;;;;;;;7.65;2.10;;;12.60;1.00;;;;;;5069117;28;20392;-58
2022/12/26 07:26:05;;;;;;;7.18;2.05;;;12.60;1.00;;;;;;5068239;28;20391;-53
2022/12/26 07:28:31;;;;;;;7.05;2.45;;;12.70;1.00;;;;;;5069001;28;20395;-53
2022/12/26 07:30:59;;;;;;;7.77;2.10;;;12.70;1.00;;;;;;5068218;28;20418;-54
2022/12/26 07:33:25;;;;;;;6.68;2.30;;;12.70;1.00;;;;;;5068788;28;20433;-53
2022/12/26 07:35:51;;;;;;;6.57;2.25;;;12.70;1.00;;;;;;5067021;28;20446;-53
2022/12/26 07:38:17;;;;;;;7.35;2.17;;;12.80;1.00;;;;;;5069159;28;20868;-53
2022/12/26 07:40:42;;;;;;;6.00;2.00;;;12.80;1.00;;;;;;5066951;28;20397;-54
2022/12/26 07:43:08;;;;;;;6.10;2.20;;;12.70;1.00;;;;;;5066212;28;20780;-53
2022/12/26 07:45:33;;;;;;;6.00;1.90;;;12.80;1.00;;;;;;5058795;28;20975;-53
2022/12/26 07:47:59;;;;;;;7.13;2.33;;;12.80;1.00;;;;;;5048702;28;20389;-52
2022/12/26 07:50:26;;;;;;;17.07;4.70;;;12.70;1.00;;;;;;5066589;28;20379;-55
2022/12/26 07:52:52;;;;;;;7.35;2.42;;;12.60;1.00;;;;;;5068616;28;20376;-53
2022/12/26 07:55:18;;;;;;;11.07;3.15;;;12.40;1.00;;;;;;5068153;28;20443;-54
2022/12/26 07:57:48;;;;;;;6.60;2.30;;;12.40;1.00;;;;;;5068387;28;20380;-53
2022/12/26 08:00:14;;;;;;;6.22;2.22;;;12.30;1.00;;;;;;5071326;28;20426;-53
2022/12/26 08:02:39;;;;;;;6.80;1.90;;;12.30;1.00;;;;;;5071369;28;20453;-53
2022/12/26 08:05:05;;;;;;;6.90;2.10;;;12.20;1.00;;;;;;5072012;28;20837;-54
2022/12/26 08:07:30;;;;;;;5.97;2.00;;;12.30;1.00;;;;;;5072275;28;20380;-53
2022/12/26 08:09:56;;;;;;;7.20;1.80;;;12.30;1.00;;;;;;5071242;28;20857;-58
2022/12/26 08:12:23;;;;;;;7.90;2.10;;;12.50;1.00;;;;;;5072149;28;20384;-52
2022/12/26 08:14:50;;;;;;;7.78;2.60;;;12.50;1.00;;;;;;5070905;28;20749;-54
2022/12/26 08:17:15;;;;;;;6.90;2.20;;;12.40;1.00;;;;;;5071861;28;20400;-54
2022/12/26 08:19:41;;;;;;;7.18;2.20;;;12.30;1.00;;;;;;5071416;28;20718;-58
2022/12/26 08:22:06;;;;;;;6.53;2.20;;;12.20;81.70;;;;;;5071574;28;20916;-53
2022/12/26 08:24:32;;;;;;;6.70;2.10;;;12.10;99.90;;;;;;5071405;28;20399;-52
2022/12/26 08:26:57;;;;;;;7.00;2.30;;;12.10;99.90;;;;;;5071253;28;20722;-53
2022/12/26 08:29:23;;;;;;;6.70;2.35;;;12.10;1.00;;;;;;5071432;28;20436;-53
2022/12/26 08:31:49;;;;;;;8.90;2.70;;;12.30;1.00;;;;;;5070915;28;20398;-53
2022/12/26 08:34:15;;;;;;;6.47;2.00;;;12.30;99.90;;;;;;5071423;28;20407;-53
2022/12/26 08:36:40;;;;;;;6.80;2.40;;;12.40;99.90;;;;;;5070864;28;20518;-57
2022/12/26 08:39:06;;;;;;;7.60;2.50;;;12.30;99.90;;;;;;5069735;28;20478;-53
2022/12/26 08:41:31;;;;;;;6.50;2.30;;;12.20;99.90;;;;;;5071642;28;20460;-53
2022/12/26 08:43:57;;;;;;;8.63;2.30;;;12.00;1.00;;;;;;5070703;28;20395;-53
2022/12/26 08:46:23;;;;;;;8.30;3.00;;;11.80;1.00;;;;;;5071257;28;20837;-53
2022/12/26 08:48:49;;;;;;;7.00;2.50;;;11.80;99.90;;;;;;5070438;28;20745;-53
2022/12/26 08:51:18;;;;;;;8.43;3.20;;;11.70;80.90;;;;;;5071060;28;20418;-53
2022/12/26 08:53:45;;;;;;;8.15;2.88;;;11.70;1.00;;;;;;5070435;28;20376;-54
2022/12/26 08:56:13;;;;;;;9.35;2.85;;;11.60;99.90;;;;;;5071129;28;20461;-53
2022/12/26 08:58:39;;;;;;;8.00;3.20;;;11.60;82.10;;;;;;5071270;28;20423;-53
2022/12/26 09:01:29;;;;;;;9.55;3.28;;;11.40;99.90;;;;;;5070589;28;20391;-53
2022/12/26 09:04:00;;;;;;;8.00;2.80;;;11.30;99.90;;;;;;5058711;28;20458;-53
2022/12/26 09:06:27;;;;;;;9.68;3.60;;;11.30;1.00;;;;;;5066067;28;20412;-53
2022/12/26 09:08:53;;;;;;;8.13;3.03;;;11.30;99.90;;;;;;5069250;28;20384;-55
2022/12/26 09:11:21;;;;;;;7.70;2.67;;;11.10;1.00;;;;;;5070070;28;20440;-55
2022/12/26 09:13:47;;;;;;;7.80;3.30;;;11.00;1.00;;;;;;5069460;28;20471;-56
2022/12/26 09:16:16;;;;;;;7.53;2.80;;;11.10;1.00;;;;;;5066419;28;20432;-55
2022/12/26 09:18:43;;;;;;;8.32;3.20;;;11.10;1.00;;;;;;5067889;28;20897;-57
2022/12/26 09:21:11;;;;;;;7.03;3.25;;;11.20;1.00;;;;;;5067922;28;20394;-52
2022/12/26 09:23:37;;;;;;;10.88;4.00;;;11.10;1.00;;;;;;5051849;28;20494;-53
2022/12/26 09:26:07;;;;;;;8.88;3.20;;;11.10;6.20;;;;;;5067917;28;20479;-55
2022/12/26 09:28:33;;;;;;;9.43;3.40;;;11.10;12.80;;;;;;5069811;28;20464;-55
2022/12/26 09:31:04;;;;;;;10.27;3.85;;;11.00;99.90;;;;;;5069494;28;20746;-55
2022/12/26 09:33:37;;;;;;;7.70;3.40;;;11.00;99.90;;;;;;5067893;28;20433;-55
2022/12/26 09:36:18;;;;;;;9.90;4.10;;;11.10;99.90;;;;;;5068833;28;20419;-54
2022/12/26 09:38:45;;;;;;;7.95;3.22;;;11.20;99.90;;;;;;5068910;28;20387;-58
2022/12/26 09:41:29;;;;;;;9.75;4.10;;;11.20;99.90;;;;;;5065853;28;20396;-53
2022/12/26 09:44:09;;;;;;;8.45;3.55;;;11.20;99.90;;;;;;5063663;28;20413;-53
2022/12/26 09:46:46;;;;;;;7.38;3.22;;;11.10;99.90;;;;;;5069412;28;20395;-55
2022/12/26 09:49:20;;;;;;;9.17;3.17;;;11.10;99.90;;;;;;5070205;28;20449;-55
2022/12/26 09:51:52;;;;;;;7.30;2.85;;;10.80;99.90;;;;;;5068922;28;20408;-55
2022/12/26 09:54:35;;;;;;;9.20;3.30;;;10.90;99.90;;;;;;5069546;28;20399;-55
2022/12/26 09:57:05;;;;;;;7.40;2.50;;;11.00;1.00;;;;;;5067743;28;20686;-55
2022/12/26 09:59:40;;;;;;;8.40;2.30;;;11.10;1.00;;;;;;5059798;28;20406;-54
2022/12/26 10:02:17;;;;;;;6.78;2.47;;;10.90;1.00;;;;;;5069638;28;20388;-55
2022/12/26 10:04:42;;;;;;;7.90;2.60;;;11.00;1.00;;;;;;5069636;28;20392;-60
2022/12/26 10:07:22;;;;;;;6.37;1.70;;;11.00;1.00;;;;;;5069455;28;20769;-55
2022/12/26 10:09:50;;;;;;;5.50;2.00;;;11.00;99.90;;;;;;5069486;28;20383;-55
2022/12/26 10:12:32;;;;;;;7.20;1.70;;;11.00;1.00;;;;;;5069937;28;20399;-55
2022/12/26 10:15:23;;;;;;;6.30;1.80;;;11.10;99.90;;;;;;5069695;28;20467;-55
2022/12/26 10:17:52;;;;;;;6.90;1.20;;;11.10;99.90;;;;;;5068894;28;20494;-56
2022/12/26 10:20:26;;;;;;;5.47;1.42;;;11.00;99.90;;;;;;5070084;28;20384;-55
2022/12/26 10:23:11;;;;;;;5.10;1.30;;;11.10;99.90;;;;;;5068828;28;20387;-55
2022/12/26 10:25:47;;;;;;;5.20;1.30;;;11.10;99.90;;;;;;5068579;28;20410;-55
2022/12/26 10:28:43;;;;;;;6.25;1.10;;;11.00;99.90;;;;;;5065528;28;20415;-53
2022/12/26 10:31:19;;;;;;;5.30;1.10;;;11.00;99.90;;;;;;5066757;28;20395;-54
2022/12/26 10:34:08;;;;;;;5.22;1.20;;;10.90;99.90;;;;;;5062101;28;20846;-54
2022/12/26 10:36:47;;;;;;;4.47;1.02;;;11.10;1.00;;;;;;5053450;28;20433;-54
2022/12/26 10:39:31;;;;;;;6.10;1.10;;;11.10;1.00;;;;;;5066537;28;20412;-54
2022/12/26 10:42:09;;;;;;;4.55;1.15;;;11.10;1.00;;;;;;5068279;28;20414;-53
2022/12/26 10:44:35;;;;;;;6.82;1.10;;;11.20;1.00;;;;;;5067482;28;20401;-54
2022/12/26 10:47:22;;;;;;;5.00;1.10;;;11.20;1.00;;;;;;5072235;28;21246;-54
2022/12/26 10:49:48;;;;;;;5.45;1.08;;;11.20;1.00;;;;;;5068924;28;20388;-54
2022/12/26 10:52:16;;;;;;;5.20;1.37;;;11.20;99.90;;;;;;5069698;28;20961;-54
2022/12/26 10:54:45;;;;;;;4.75;1.30;;;11.30;1.00;;;;;;5068534;28;20513;-57
2022/12/26 10:57:11;;;;;;;4.93;1.30;;;11.30;1.00;;;;;;5068753;28;20443;-52
2022/12/26 10:59:39;;;;;;;5.85;1.67;;;11.30;1.00;;;;;;5067206;28;20461;-52
2022/12/26 11:02:27;;;;;;;7.70;3.47;;;11.40;1.00;;;;;;5069421;28;20510;-52
2022/12/26 11:05:07;;;;;;;14.50;8.80;;;11.40;1.00;;;;;;5067682;28;20404;-53
2022/12/26 11:07:51;;;;;;;6.70;2.70;;;11.50;1.00;;;;;;5068964;28;20379;-53
2022/12/26 11:10:24;;;;;;;9.60;3.80;;;11.60;99.90;;;;;;5069300;28;20394;-52
2022/12/26 11:13:00;;;;;;;8.25;2.72;;;11.60;99.90;;;;;;5050342;28;20383;-52
2022/12/26 11:15:46;;;;;;;6.25;1.45;;;11.80;99.90;;;;;;5067193;28;20760;-53
2022/12/26 11:18:32;;;;;;;6.00;2.63;;;11.80;99.90;;;;;;5066546;28;20456;-52
2022/12/26 11:21:12;;;;;;;5.80;1.60;;;11.70;99.90;;;;;;5062857;28;20380;-52
2022/12/26 11:23:38;;;;;;;5.25;1.58;;;11.70;99.90;;;;;;5066864;28;20853;-52
2022/12/26 11:26:28;;;;;;;5.60;1.53;;;11.60;99.90;;;;;;5068493;28;20414;-52
2022/12/26 11:29:14;;;;;;;7.30;2.90;;;11.60;99.90;;;;;;5067573;28;20826;-52
2022/12/26 11:32:02;;;;;;;8.20;1.98;;;11.70;99.90;;;;;;5065906;28;20474;-52
2022/12/26 11:34:33;;;;;;;8.93;2.70;;;11.60;99.90;;;;;;5069423;28;20422;-52
2022/12/26 11:36:59;;;;;;;5.28;1.60;;;11.60;99.90;;;;;;5068698;28;20510;-53
2022/12/26 11:39:31;;;;;;;10.88;5.32;;;11.40;99.90;;;;;;5072263;28;20550;-54
2022/12/26 11:41:57;;;;;;;7.45;3.55;;;11.50;99.90;;;;;;5071179;28;20991;-51
2022/12/26 11:44:39;;;;;;;7.25;3.22;;;11.50;99.90;;;;;;5069325;28;20475;-53
2022/12/26 11:47:10;;;;;;;6.88;2.95;;;11.60;99.90;;;;;;5069992;28;20394;-52
2022/12/26 11:49:59;;;;;;;8.57;3.42;;;11.60;99.90;;;;;;5068613;28;20469;-52
2022/12/26 11:52:51;;;;;;;9.85;4.50;;;11.50;99.90;;;;;;5054068;28;20404;-52
2022/12/26 11:57:56;;;;;;;11.90;4.38;;;11.60;99.90;;;;;;5070423;28;20518;-53
2022/12/26 12:00:23;;;;;;;7.95;3.45;;;11.70;1.00;;;;;;5071068;28;20476;-52
2022/12/26 12:02:49;;;;;;;10.18;4.00;;;11.60;1.00;;;;;;5069400;28;20391;-53
2022/12/26 12:05:34;;;;;;;16.67;9.85;;;11.60;1.00;;;;;;5070160;28;20761;-51
2022/12/26 12:08:17;;;;;;;5.60;1.37;;;11.60;1.00;;;;;;5071121;28;20384;-51
2022/12/26 12:10:47;;;;;;;12.45;6.10;;;11.70;99.90;;;;;;5071894;28;20463;-50
2022/12/26 12:13:43;;;;;;;14.15;8.05;;;11.80;1.00;;;;;;5071714;28;20388;-54
2022/12/26 12:16:40;;;;;;;11.95;5.93;;;11.90;99.90;;;;;;5069562;28;20485;-51
2022/12/26 12:19:24;;;;;;;33.67;16.45;;;12.10;1.00;;;;;;5072216;28;20513;-51
2022/12/26 12:22:17;;;;;;;8.13;3.30;;;12.30;99.90;;;;;;5069915;28;20387;-53
2022/12/26 12:25:06;;;;;;;7.03;2.78;;;12.10;99.90;;;;;;5071276;28;20392;-52
2022/12/26 12:28:09;;;;;;;7.15;2.63;;;12.10;99.90;;;;;;5071544;28;20434;-52
2022/12/26 12:31:01;;;;;;;4.72;0.80;;;12.00;60.20;;;;;;5034036;28;20450;-52
2022/12/26 12:33:42;;;;;;;4.80;1.00;;;11.90;99.90;;;;;;5052011;28;20393;-53
2022/12/26 12:36:14;;;;;;;4.93;1.15;;;12.00;1.00;;;;;;5050692;28;20958;-53
2022/12/26 12:39:14;;;;;;;4.50;0.90;;;11.90;99.90;;;;;;5051974;28;20944;-54
2022/12/26 12:41:59;;;;;;;4.20;0.60;;;11.60;1.00;;;;;;5051398;28;20409;-53
2022/12/26 12:44:48;;;;;;;4.43;0.60;;;11.50;1.00;;;;;;5062635;28;20383;-52
2022/12/26 12:47:51;;;;;;;4.50;0.82;;;11.60;99.90;;;;;;5071478;28;20403;-53
2022/12/26 12:50:23;;;;;;;4.70;0.70;;;11.60;99.90;;;;;;5071374;28;20422;-52
2022/12/26 12:52:54;;;;;;;4.60;0.80;;;11.60;1.00;;;;;;5070635;28;20384;-57
2022/12/26 12:55:39;;;;;;;4.45;0.73;;;11.60;99.90;;;;;;5070680;28;20911;-52
2022/12/26 12:58:11;;;;;;;4.20;0.60;;;11.70;1.00;;;;;;5066753;28;20693;-54
2022/12/26 13:00:57;;;;;;;4.37;0.80;;;11.80;99.90;;;;;;5069514;28;20434;-54
2022/12/26 13:03:36;;;;;;;4.30;0.60;;;11.70;1.00;;;;;;5070584;28;20388;-53
2022/12/26 13:06:08;;;;;;;4.13;0.60;;;11.70;1.00;;;;;;5067629;28;20461;-52
2022/12/26 13:08:51;;;;;;;3.80;0.60;;;11.70;99.90;;;;;;5070792;28;20446;-52
2022/12/26 13:11:25;;;;;;;4.20;0.60;;;11.80;39.10;;;;;;5070368;28;20395;-52
2022/12/26 13:14:18;;;;;;;4.60;0.80;;;11.80;99.90;;;;;;5069536;28;20891;-54
2022/12/26 13:16:47;;;;;;;5.00;0.70;;;11.70;99.90;;;;;;5066736;28;20902;-52
2022/12/26 13:19:24;;;;;;;4.82;0.60;;;11.50;99.90;;;;;;5070440;28;20384;-52
2022/12/26 13:21:53;;;;;;;5.00;0.65;;;11.60;96.10;;;;;;5068951;28;20405;-52
2022/12/26 13:24:50;;;;;;;4.20;0.77;;;11.60;99.90;;;;;;5071292;28;20399;-52
2022/12/26 13:27:30;;;;;;;4.05;0.60;;;11.60;1.00;;;;;;5039104;28;20425;-52
2022/12/26 13:29:55;;;;;;;4.10;0.52;;;11.60;1.00;;;;;;5069377;28;20814;-53
2022/12/26 13:32:22;;;;;;;4.60;0.80;;;11.70;1.00;;;;;;5069934;28;20391;-53
2022/12/26 13:34:50;;;;;;;4.10;0.70;;;11.70;1.00;;;;;;5068821;28;20866;-56
2022/12/26 13:37:37;;;;;;;5.60;0.90;;;11.70;99.90;;;;;;5070248;28;20424;-53
2022/12/26 13:40:16;;;;;;;4.10;0.70;;;11.70;1.00;;;;;;5065785;28;20467;-53
2022/12/26 13:45:41;;;;;;;4.40;0.70;;;11.70;1.00;;;;;;5068235;28;20375;-52
2022/12/26 13:48:16;;;;;;;4.38;0.60;;;11.80;1.00;;;;;;5069528;28;20565;-54
2022/12/26 13:51:01;;;;;;;4.25;0.75;;;11.80;1.00;;;;;;5066990;28;20395;-52
2022/12/26 13:53:30;;;;;;;4.60;0.80;;;11.70;99.90;;;;;;5069361;28;20466;-52
2022/12/26 13:56:01;;;;;;;4.60;0.70;;;11.50;1.00;;;;;;5068682;28;20415;-52
2022/12/26 13:58:41;;;;;;;4.10;0.60;;;11.70;99.90;;;;;;5066527;28;20380;-52
2022/12/26 14:01:30;;;;;;;4.40;0.80;;;11.60;1.00;;;;;;5071722;28;20871;-52
2022/12/26 14:04:14;;;;;;;4.40;0.70;;;11.70;1.00;;;;;;5055795;28;20498;-52
2022/12/26 14:06:55;;;;;;;4.40;0.70;;;11.80;99.90;;;;;;5076469;28;20410;-52
2022/12/26 14:09:51;;;;;;;4.63;0.80;;;11.80;1.00;;;;;;5071270;28;20471;-52
2022/12/26 14:12:20;;;;;;;4.43;0.80;;;11.90;99.90;;;;;;5067064;28;20470;-52
2022/12/26 14:15:13;;;;;;;4.00;0.80;;;11.80;45.80;;;;;;5073511;28;20475;-53
2022/12/26 14:18:08;;;;;;;4.40;0.80;;;11.90;1.00;;;;;;5082329;28;20399;-52
2022/12/26 14:21:00;;;;;;;4.20;0.80;;;11.80;1.00;;;;;;5087132;28;20398;-52
2022/12/26 14:23:35;;;;;;;4.00;0.60;;;11.80;25.70;;;;;;5090196;28;20381;-52
2022/12/26 14:26:19;;;;;;;4.47;0.60;;;11.90;99.90;;;;;;5080346;28;20400;-52
2022/12/26 14:29:11;;;;;;;4.30;0.70;;;11.80;99.90;;;;;;5065980;28;20483;-52
2022/12/26 14:31:55;;;;;;;4.82;0.90;;;11.90;1.00;;;;;;5069369;28;20749;-52
2022/12/26 14:34:29;;;;;;;7.25;0.90;;;11.80;99.90;;;;;;5069040;28;20405;-52
2022/12/26 14:37:32;;;;;;;4.00;0.60;;;11.80;99.90;;;;;;5067903;28;20458;-52
2022/12/26 14:40:06;;;;;;;4.30;0.70;;;11.80;99.90;;;;;;5068710;28;20387;-52
2022/12/26 14:43:12;;;;;;;4.53;0.70;;;11.70;1.00;;;;;;5069191;28;20407;-52
2022/12/26 14:45:52;;;;;;;4.55;0.63;;;11.70;1.00;;;;;;5069364;28;20388;-52
2022/12/26 14:48:17;;;;;;;4.32;0.80;;;11.70;82.20;;;;;;5069461;28;20813;-51
2022/12/26 14:50:44;;;;;;;4.33;0.90;;;11.70;99.90;;;;;;5069373;28;20414;-52
2022/12/26 14:53:19;;;;;;;4.45;0.90;;;11.70;99.90;;;;;;5068530;28;20418;-52
2022/12/26 14:55:53;;;;;;;5.20;0.90;;;11.70;99.90;;;;;;5069239;28;20434;-52
2022/12/26 14:58:35;;;;;;;4.88;0.80;;;11.80;99.90;;;;;;5069074;28;20387;-51
2022/12/26 15:01:12;;;;;;;5.20;0.80;;;11.70;99.90;;;;;;5068195;28;20379;-51
2022/12/26 15:03:59;;;;;;;4.60;0.82;;;11.70;99.90;;;;;;5069120;28;20384;-52
2022/12/26 15:07:01;;;;;;;4.40;0.90;;;11.60;1.00;;;;;;5069189;28;20494;-52
2022/12/26 15:10:03;;;;;;;4.10;0.80;;;11.60;1.00;;;;;;5072099;28;20376;-52
2022/12/26 15:12:54;;;;;;;4.38;0.80;;;11.60;1.00;;;;;;5071954;28;20380;-52
2022/12/26 15:15:32;;;;;;;6.05;1.10;;;10.90;99.90;;;;;;5069305;28;20473;-52
2022/12/26 15:18:10;;;;;;;4.68;1.00;;;11.60;99.90;;;;;;5071472;28;20469;-53
2022/12/26 15:20:50;;;;;;;5.38;0.80;;;11.50;1.00;;;;;;5073325;28;20477;-52
2022/12/26 15:23:43;;;;;;;4.95;1.10;;;11.40;1.00;;;;;;5073905;28;20449;-51
2022/12/26 15:26:24;;;;;;;4.80;1.00;;;11.40;99.90;;;;;;5069548;28;21062;-51
2022/12/26 15:28:50;;;;;;;4.55;1.10;;;11.40;99.90;;;;;;5068198;28;20398;-56
2022/12/26 15:31:37;;;;;;;4.90;1.20;;;11.30;99.90;;;;;;5065931;28;20450;-51
2022/12/26 15:34:31;;;;;;;4.97;1.10;;;11.30;1.00;;;;;;5068036;28;20423;-52